North Bridgton, ME

1:53 PM EDT on August 04, 2015 (GMT -0400)
Moose Pond (Knights Hill) | | Change Station
CLOSE
Current Station
Personal Weather Station
Location: Bridgton, ME
Elevation: 419 ft
Nearby Weather Stations
Active Advisory: Severe Thunderstorm Watch

Elev 419 ft 44.08 °N, 70.81 °W | Updated 5 seconds ago

Clear
Clear
82.4 °F
Feels Like 84 °F
N
0.9
Wind Variable Wind from SSE
Gusts 3.5 mph

Today
High -- | Low -- °F
--% Chance of Precip.
Yesterday
High -- | Low -- °F
Precip. -- in
5:33 AM 8:03 PM
Waning Gibbous, 76% visible
Pressure 29.79 in
Visibility 10.0 miles
Clouds Clear
Heat Index 84 °F
Dew Point 64 °F
Humidity 54%
Rainfall 0.00 in
Snow Depth Not available.
UV 10 out of 12
Pollen 4.90 out of 12
Air Quality Not available.
Flu Activity Not available.
METAR KIZG 041654Z AUTO VRB05G15KT 10SM CLR 28/17 A2979 RMK AO2 SLP086 T02830172

More Conditions Fewer Conditions

Pressure 29.79 in
Visibility 10.0 miles
Clouds Clear
Heat Index 84 °F
Dew Point 64 °F
Humidity 54%
Rainfall 0.00 in
Snow Depth Not available.
UV 10 out of 12
Pollen 4.90 out of 12
Air Quality Not available.
Flu Activity Not available.
METAR KIZG 041654Z AUTO VRB05G15KT 10SM CLR 28/17 A2979 RMK AO2 SLP086 T02830172

More Conditions Fewer Conditions

10-Day Weather Forecast

×

Almanac

Astronomy

Aug. 04, 2015 Rise Set
Actual Time
Civil Twilight
Nautical Twilight
Astronomical Twilight
Moon
Length of Visible Light
Length of Day
Tomorrow will be .
, % of the Moon is Illuminated

Today's Extremes

State Highs State Lows

Community

WunderPhotos

Upload Photos

1,843,927 photos uploaded!

WunderBlogs® & News

Nearby

Air Quality

  Air Quality AQ Index Pollutant
Not available.

Snow Depth

Station Depth Elevation

Earthquake Activity

City Distance Mag. Time & Date
Minimum magnitude displayed is 2.5.

Coastal Water Temperatures

Place Temperature

Stations

Nearby Weather Stations

Station Location Temp. Windchill Dew Point Humidity Wind Precip. Elev Updated Type
                   
Severe Thunderstorm Watch
Statement as of 1:43 PM EDT on August 04, 2015

Severe Thunderstorm Watch 469 remains in effect until 800 PM EDT

ME
. Maine counties included are

Androscoggin Aroostook Cumberland
Franklin Hancock Kennebec
Knox Lincoln Oxford
Penobscot Piscataquis Sagadahoc
Somerset Waldo Washington
York